Claremore, OK

7:14 AM CST on December 07, 2016 (GMT -0600)
Will Rogers Heights II | | Change Station

Elev 725 ft 36.33 °N, 95.63 °W | Updated 5 minutes ago

Overcast
Overcast
36.9 °F
Feels Like 33 °F
N
5.0
Wind Variable Wind from ENE
Gusts 6.0 mph

Today
High -- | Low -- °F
--% Chance of Precip.
Yesterday
High -- | Low -- °F
Precip. -- in
Pressure 30.18 in
Visibility 10.0 miles
Clouds Overcast 3600 ft
Windchill 33 °F
Dew Point 19 °F
Humidity 48%
Rainfall 0.00 in
Snow Depth Not available.
7:21 AM 5:07 PM
First Quarter, 52% visible
METAR KGCM 071255Z AUTO 08006KT 10SM OVC036 02/M09 A3018 RMK AO2
Pressure 30.18 in
Visibility 10.0 miles
Clouds Overcast 3600 ft
Windchill 33 °F
Dew Point 19 °F
Humidity 48%
Rainfall 0.00 in
Snow Depth Not available.
7:21 AM 5:07 PM
First Quarter, 52% visible
METAR KGCM 071255Z AUTO 08006KT 10SM OVC036 02/M09 A3018 RMK AO2

10-Day Weather Forecast

Almanac

Astronomy

Dec. 07, 2016 Rise Set
Actual Time
Civil Twilight
Nautical Twilight
Astronomical Twilight
Moon
Length of Visible Light
Length of Day
Tomorrow will be .
, % of the Moon is Illuminated

Today's Extremes

State Highs State Lows

Community

WunderPhotos

Upload Photos

1,956,111 photos uploaded!

WunderBlog® & News

Nearby

Air Quality

  Air Quality AQ Index Pollutant
Not available.

Snow Depth

Station Depth Elevation

Earthquake Activity

City Distance Mag. Time & Date
Minimum magnitude displayed is 2.5.

Coastal Water Temperatures

Place Temperature

Stations

Nearby Weather Stations

Station Location Temp. Windchill Dew Point Humidity Wind Precip. Elev Updated Type
                   

Watches & Warnings

There are currently no watches in effect.